Sturgills, North Carolina
Current Conditions -  °F | °C
As of 8:55 PM on Thursday 18 Dec 2014 (Local Time) from KGEV Reporting Station
Overcast Overcast  
Wind Chill: 36°   Ceiling: 4600
Heat Index: 36°   Visibility: 10mi
Dew Point:   Wind: 3mph
Humidity: 32%   Direction: 290°WNW
Pressure: 30.05"   Gusts: NA
Location:  36.524°N, 81.538°W
Report Text: KGEV 190155Z AUTO 29003KT 10SM SCT020 OVC046 02/M13 A3005 RMK AO2 T00221132
Loading
Personal Weather Stations






























Interactive Weather Map New forecast layout! Learn more

10-Day Weather Forecast

Advertisements
Track Severe Weather on mobile